Time;durP1;ratioP1;P1;durP2;ratioP2;P2;SDS_P1;SDS_P2;PMS_P1;PMS_P2;Temp;Humidity;BMP_temperature;BMP_pressure;BME280_temperature;BME280_humidity;BME280_pressure;Samples;Min_cycle;Max_cycle;Signal;HPM_P1;HPM_P2
2022/11/19 00:00:19;;;;;;;30.05;17.63;;;;;;;4.39;100.00;100693.44;5114881;28;20098;-85
2022/11/19 00:02:44;;;;;;;30.60;17.58;;;;;;;4.29;100.00;100688.22;5130554;27;20039;-86
2022/11/19 00:05:09;;;;;;;30.65;17.23;;;;;;;4.27;100.00;100692.47;5135301;27;20034;-84
2022/11/19 00:07:35;;;;;;;29.35;16.23;;;;;;;4.27;100.00;100697.63;5135255;27;20019;-86
2022/11/19 00:10:01;;;;;;;27.40;15.18;;;;;;;4.30;100.00;100699.34;5134222;27;20033;-85
2022/11/19 00:15:10;;;;;;;30.30;17.13;;;;;;;4.20;100.00;100702.69;5134931;27;20106;-85
2022/11/19 00:17:35;;;;;;;31.27;18.00;;;;;;;4.09;100.00;100703.47;5135171;27;20110;-86
2022/11/19 00:20:00;;;;;;;30.17;17.98;;;;;;;4.01;100.00;100707.66;5121226;27;20035;-86
2022/11/19 00:22:25;;;;;;;30.08;17.90;;;;;;;3.94;100.00;100711.88;5113446;28;20156;-85
2022/11/19 00:24:51;;;;;;;30.75;17.88;;;;;;;3.83;100.00;100714.31;5113896;28;20040;-85
2022/11/19 00:27:16;;;;;;;29.77;17.10;;;;;;;3.86;100.00;100708.38;5122527;27;20035;-84
2022/11/19 00:29:41;;;;;;;29.98;16.92;;;;;;;3.86;100.00;100714.38;5133222;27;20027;-85
2022/11/19 00:32:06;;;;;;;30.42;18.17;;;;;;;3.79;100.00;100717.72;5134765;27;20027;-85
2022/11/19 00:34:32;;;;;;;30.88;17.88;;;;;;;3.76;100.00;100720.25;5134509;27;20031;-86
2022/11/19 00:36:57;;;;;;;28.65;16.45;;;;;;;3.82;100.00;100712.63;5133268;27;20020;-84
2022/11/19 00:39:22;;;;;;;29.85;17.27;;;;;;;3.80;100.00;100721.13;5134104;27;20053;-85
2022/11/19 00:41:47;;;;;;;32.22;18.33;;;;;;;3.71;100.00;100714.22;5133983;27;20072;-85
2022/11/19 00:44:13;;;;;;;30.20;17.13;;;;;;;3.80;100.00;100727.16;5134122;27;20046;-86
2022/11/19 00:46:38;;;;;;;28.10;15.63;;;;;;;3.90;100.00;100729.81;5134170;27;20344;-85
2022/11/19 00:49:03;;;;;;;29.05;16.55;;;;;;;3.94;100.00;100731.56;5134452;27;20068;-85
2022/11/19 00:51:30;;;;;;;27.13;14.98;;;;;;;3.98;100.00;100728.16;5133881;27;20345;-86
2022/11/19 00:53:56;;;;;;;30.48;17.52;;;;;;;3.90;100.00;100735.78;5133639;27;20192;-85
2022/11/19 00:56:23;;;;;;;32.55;19.60;;;;;;;3.77;100.00;100739.09;5133929;27;20034;-85
2022/11/19 00:58:49;;;;;;;32.75;19.33;;;;;;;3.72;100.00;100731.31;5133662;27;20031;-86
2022/11/19 01:01:16;;;;;;;34.10;20.92;;;;;;;3.65;100.00;100727.84;5134023;27;20042;-86
2022/11/19 01:03:44;;;;;;;33.47;20.33;;;;;;;3.59;100.00;100735.47;5133842;27;20030;-85
2022/11/19 01:06:10;;;;;;;34.88;20.50;;;;;;;3.59;100.00;100730.31;5133759;27;20031;-85
2022/11/19 01:08:36;;;;;;;32.70;18.75;;;;;;;3.63;100.00;100731.22;5133124;27;20065;-85
2022/11/19 01:11:11;;;;;;;33.50;19.50;;;;;;;3.68;100.00;100735.56;5134421;27;20447;-85
2022/11/19 01:13:36;;;;;;;33.58;20.35;;;;;;;3.59;100.00;100730.31;5133267;27;20035;-85
2022/11/19 01:16:14;;;;;;;33.30;19.40;;;;;;;3.59;100.00;100740.59;5128022;27;20027;-85
2022/11/19 01:18:40;;;;;;;33.63;19.52;;;;;;;3.53;100.00;100753.38;5112694;28;20026;-86
2022/11/19 01:21:07;;;;;;;34.15;19.08;;;;;;;3.45;100.00;100749.81;5120350;28;20380;-86
2022/11/19 01:23:33;;;;;;;33.17;19.55;;;;;;;3.37;100.00;100752.31;5134008;28;20038;-86
2022/11/19 01:25:59;;;;;;;32.78;19.58;;;;;;;3.30;100.00;100759.06;5132748;28;20023;-85
2022/11/19 01:28:25;;;;;;;32.60;19.07;;;;;;;3.33;100.00;100759.09;5133883;28;20404;-85
2022/11/19 01:30:50;;;;;;;35.38;19.92;;;;;;;3.21;100.00;100770.06;5133335;28;20054;-85
2022/11/19 01:33:16;;;;;;;32.95;18.67;;;;;;;3.27;100.00;100761.59;5133505;28;20110;-86
2022/11/19 01:35:41;;;;;;;31.90;18.05;;;;;;;3.29;100.00;100774.41;5133422;28;20016;-86
2022/11/19 01:38:06;;;;;;;30.58;18.00;;;;;;;3.30;100.00;100778.72;5133756;28;20402;-86
2022/11/19 01:40:39;;;;;;;33.90;19.50;;;;;;;3.24;100.00;100770.09;5133015;28;20382;-85
2022/11/19 01:43:04;;;;;;;30.77;18.17;;;;;;;3.26;100.00;100777.81;5133492;28;20054;-85
2022/11/19 01:45:55;;;;;;;31.27;17.85;;;;;;;3.21;100.00;100771.75;5133750;28;20055;-85
2022/11/19 01:48:23;;;;;;;31.10;17.00;;;;;;;3.16;100.00;100776.81;5128907;28;20046;-85
2022/11/19 01:50:57;;;;;;;28.38;15.60;;;;;;;3.22;100.00;100784.59;5133173;28;20110;-85
2022/11/19 01:53:28;;;;;;;29.25;16.10;;;;;;;3.17;100.00;100782.81;5127479;28;20036;-86
2022/11/19 01:55:55;;;;;;;32.60;17.33;;;;;;;3.13;100.00;100791.28;5112152;28;20460;-86
2022/11/19 01:58:23;;;;;;;29.58;16.15;;;;;;;3.14;100.00;100790.47;5112938;28;20479;-85
2022/11/19 02:00:48;;;;;;;29.90;15.70;;;;;;;3.17;100.00;100793.06;5112380;28;20028;-85
2022/11/19 02:03:15;;;;;;;26.38;14.88;;;;;;;3.16;100.00;100792.19;5113208;28;20015;-85
2022/11/19 02:05:42;;;;;;;27.50;15.35;;;;;;;3.16;100.00;100802.44;5112889;28;20016;-85
2022/11/19 02:08:28;;;;;;;26.77;14.93;;;;;;;3.11;100.00;100804.09;5112322;28;20035;-84
2022/11/19 02:11:21;;;;;;;26.65;15.45;;;;;;;3.06;100.00;100798.91;5112567;28;20471;-85
2022/11/19 02:14:08;;;;;;;26.60;14.95;;;;;;;3.00;100.00;100800.53;5112796;28;20035;-84
2022/11/19 02:16:39;;;;;;;25.83;14.18;;;;;;;3.02;100.00;100802.25;5112349;28;20032;-84
2022/11/19 02:19:41;;;;;;;25.90;14.90;;;;;;;3.04;100.00;100802.31;5113761;28;20081;-85
2022/11/19 02:22:44;;;;;;;27.67;15.68;;;;;;;2.98;100.00;100803.06;5127581;27;20038;-85
2022/11/19 02:25:38;;;;;;;27.38;15.23;;;;;;;2.95;100.00;100800.44;5136835;27;20031;-86
2022/11/19 02:28:30;;;;;;;27.42;14.80;;;;;;;2.99;100.00;100802.19;5137341;27;20047;-85
2022/11/19 02:31:09;;;;;;;26.77;14.98;;;;;;;2.99;100.00;100801.34;5133385;27;20019;-85
2022/11/19 02:33:47;;;;;;;26.02;14.95;;;;;;;2.93;100.00;100808.09;5116667;28;20027;-86
2022/11/19 02:36:23;;;;;;;25.83;15.35;;;;;;;2.91;100.00;100799.56;5115610;28;20081;-85
2022/11/19 02:39:01;;;;;;;26.42;15.02;;;;;;;2.91;100.00;100809.81;5116404;28;20031;-85
2022/11/19 02:41:32;;;;;;;26.52;15.27;;;;;;;2.78;100.00;100795.91;5118073;28;20023;-86
2022/11/19 02:47:35;;;;;;;25.30;14.38;;;;;;;2.66;100.00;100803.41;5122347;28;20082;-85
2022/11/19 02:50:13;;;;;;;24.10;13.98;;;;;;;2.60;100.00;100809.28;5119625;27;20031;-86
2022/11/19 02:52:41;;;;;;;26.55;15.77;;;;;;;2.53;100.00;100809.19;5137195;27;20038;-85
2022/11/19 02:55:06;;;;;;;26.08;15.73;;;;;;;2.41;100.00;100818.38;5137529;27;20038;-86
2022/11/19 02:57:34;;;;;;;24.50;14.43;;;;;;;2.40;100.00;100819.19;5119102;27;20027;-85
2022/11/19 03:05:48;;;;;;;23.58;13.65;;;;;;;2.38;100.00;100825.09;5116647;28;20084;-86
2022/11/19 03:08:13;;;;;;;24.45;14.52;;;;;;;2.35;100.00;100822.53;5116492;28;20040;-86
2022/11/19 03:11:04;;;;;;;26.35;15.07;;;;;;;2.20;100.00;100833.31;5115509;28;20548;-86
2022/11/19 03:16:41;;;;;;;25.05;14.85;;;;;;;2.11;100.00;100834.88;5116790;28;20070;-85
2022/11/19 03:19:12;;;;;;;27.00;15.55;;;;;;;2.07;100.00;100832.22;5115838;28;20058;-85
2022/11/19 03:21:45;;;;;;;26.15;15.80;;;;;;;2.03;100.00;100839.00;5116154;28;20457;-85
2022/11/19 03:24:20;;;;;;;27.92;15.60;;;;;;;2.01;100.00;100840.66;5115922;27;20020;-85
2022/11/19 03:26:53;;;;;;;27.38;15.85;;;;;;;2.02;100.00;100839.81;5115419;28;20559;-85
2022/11/19 03:29:22;;;;;;;29.30;17.33;;;;;;;2.01;100.00;100840.66;5115718;28;20428;-85
2022/11/19 03:31:51;;;;;;;28.75;17.33;;;;;;;2.01;100.00;100843.22;5114900;28;20065;-86
2022/11/19 03:34:22;;;;;;;28.80;17.13;;;;;;;1.95;100.00;100851.63;5114704;28;20027;-85
2022/11/19 03:37:00;;;;;;;29.23;16.83;;;;;;;2.03;100.00;100844.09;5116285;28;20020;-85
2022/11/19 03:39:26;;;;;;;29.45;16.63;;;;;;;1.94;100.00;100842.22;5115391;28;20030;-85
2022/11/19 03:41:53;;;;;;;30.13;17.50;;;;;;;1.91;100.00;100847.31;5115297;28;20103;-85
2022/11/19 03:44:30;;;;;;;28.55;16.23;;;;;;;2.02;100.00;100841.53;5115605;28;20069;-85
2022/11/19 03:47:01;;;;;;;;;;;;;;;1.92;100.00;100854.13;5114853;28;20471;-85
2022/11/19 03:49:32;;;;;;;31.75;18.17;;;;;;;1.93;100.00;100847.31;5115535;28;19955;-86
2022/11/19 03:52:03;;;;;;;29.60;16.55;;;;;;;1.95;100.00;100853.34;5124401;27;20028;-86
2022/11/19 03:54:29;;;;;;;30.88;17.77;;;;;;;1.91;100.00;100844.75;5118599;28;20034;-85
2022/11/19 03:56:57;;;;;;;29.67;17.42;;;;;;;1.94;100.00;100859.28;5115148;28;20024;-85
2022/11/19 03:59:22;;;;;;;31.60;16.85;;;;;;;1.94;100.00;100851.59;5115208;28;20065;-85
2022/11/19 04:01:51;;;;;;;30.65;17.10;;;;;;;1.95;100.00;100851.63;5114479;28;20471;-85
2022/11/19 04:04:36;;;;;;;29.45;16.80;;;;;;;1.97;100.00;100854.25;5114902;28;20031;-85
2022/11/19 04:07:07;;;;;;;31.38;16.90;;;;;;;1.95;100.00;100854.19;5115343;28;20030;-85
2022/11/19 04:09:34;;;;;;;28.85;15.80;;;;;;;1.99;100.00;100848.31;5115305;28;20024;-85
2022/11/19 04:12:00;;;;;;;31.60;17.52;;;;;;;1.95;100.00;100861.03;5115421;28;20023;-84
2022/11/19 04:14:25;;;;;;;30.27;16.65;;;;;;;1.98;100.00;100859.38;5114295;28;20034;-84
2022/11/19 04:16:51;;;;;;;29.70;16.48;;;;;;;1.97;100.00;100860.22;5114829;28;20468;-85
2022/11/19 04:19:17;;;;;;;28.77;16.40;;;;;;;1.98;100.00;100864.50;5113890;28;20081;-84
2022/11/19 04:21:42;;;;;;;31.50;17.15;;;;;;;1.92;100.00;100864.34;5131086;27;20131;-85
2022/11/19 04:24:08;;;;;;;30.05;16.90;;;;;;;1.96;100.00;100873.00;5134834;27;20019;-84
2022/11/19 04:26:33;;;;;;;30.92;17.20;;;;;;;1.93;100.00;100878.88;5135002;27;20019;-84
2022/11/19 04:28:58;;;;;;;34.22;18.40;;;;;;;1.82;100.00;100881.25;5135242;27;20349;-85
2022/11/19 04:31:25;;;;;;;31.33;17.42;;;;;;;1.88;100.00;100890.75;5134215;27;20356;-84
2022/11/19 04:33:50;;;;;;;31.55;17.98;;;;;;;1.88;100.00;100893.31;5135187;27;20031;-84
2022/11/19 04:36:15;;;;;;;31.30;18.05;;;;;;;1.87;100.00;100895.81;5133396;27;20034;-85
2022/11/19 04:38:41;;;;;;;31.05;17.90;;;;;;;1.87;100.00;100906.03;5134990;27;20451;-84
2022/11/19 04:41:07;;;;;;;30.83;18.33;;;;;;;1.81;100.00;100894.88;5134649;27;20062;-85
2022/11/19 04:43:32;;;;;;;32.43;19.03;;;;;;;1.74;100.00;100893.00;5114887;27;20042;-85
2022/11/19 04:45:57;;;;;;;32.97;19.58;;;;;;;1.77;100.00;100899.88;5114296;28;20456;-85
2022/11/19 04:48:23;;;;;;;32.55;18.42;;;;;;;1.80;100.00;100894.84;5113334;27;20047;-85
2022/11/19 04:50:48;;;;;;;32.05;18.65;;;;;;;1.75;100.00;100896.41;5113715;28;20036;-85
2022/11/19 04:53:13;;;;;;;32.00;18.45;;;;;;;1.76;100.00;100896.44;5113793;28;20080;-84
2022/11/19 04:55:38;;;;;;;32.15;18.65;;;;;;;1.75;100.00;100899.84;5114364;28;20502;-84
2022/11/19 04:58:04;;;;;;;31.50;17.73;;;;;;;1.80;100.00;100907.63;5113332;28;20102;-84
2022/11/19 05:00:29;;;;;;;31.13;17.92;;;;;;;1.82;100.00;100905.94;5113920;28;20022;-84
2022/11/19 05:02:54;;;;;;;32.97;19.10;;;;;;;1.81;100.00;100905.09;5113738;28;20031;-85
2022/11/19 05:05:20;;;;;;;31.75;18.80;;;;;;;1.79;100.00;100903.34;5112459;28;20016;-84
2022/11/19 05:07:45;;;;;;;32.92;19.20;;;;;;;1.75;100.00;100911.78;5113888;28;20031;-84
2022/11/19 05:10:11;;;;;;;35.63;20.80;;;;;;;1.65;99.53;100918.38;5113425;28;20050;-85
2022/11/19 05:12:36;;;;;;;34.35;20.67;;;;;;;1.62;99.82;100916.63;5112815;28;20353;-84
2022/11/19 05:15:01;;;;;;;35.13;21.25;;;;;;;1.58;99.85;100924.19;5113983;28;20057;-85
2022/11/19 05:17:27;;;;;;;34.53;19.80;;;;;;;1.55;99.09;100922.44;5113228;28;20077;-85
2022/11/19 05:19:52;;;;;;;32.97;19.75;;;;;;;1.57;99.47;100927.56;5112757;28;20026;-84
2022/11/19 05:22:17;;;;;;;33.40;20.38;;;;;;;1.57;99.88;100927.56;5113343;28;20023;-85
2022/11/19 05:24:42;;;;;;;33.60;19.92;;;;;;;1.53;99.59;100931.75;5112922;28;20111;-85
2022/11/19 05:27:08;;;;;;;34.40;20.65;;;;;;;1.58;100.00;100939.53;5113226;28;20027;-84
2022/11/19 05:29:33;;;;;;;33.67;19.88;;;;;;;1.56;100.00;100944.63;5130024;28;20118;-85
2022/11/19 05:31:58;;;;;;;35.45;20.45;;;;;;;1.52;99.71;100948.78;5134516;28;20491;-85
2022/11/19 05:34:23;;;;;;;34.30;21.00;;;;;;;1.50;99.13;100949.59;5136852;28;20035;-85
2022/11/19 05:36:49;;;;;;;34.03;20.45;;;;;;;1.52;99.54;100945.38;5135890;28;20077;-84
2022/11/19 05:39:14;;;;;;;34.08;20.55;;;;;;;1.45;99.35;100948.63;5133567;28;20026;-85
2022/11/19 05:41:39;;;;;;;35.60;21.85;;;;;;;1.47;99.82;100941.84;5133615;28;20034;-84
2022/11/19 05:44:05;;;;;;;35.80;21.48;;;;;;;1.47;99.00;100949.50;5120987;28;20015;-85
2022/11/19 05:46:30;;;;;;;36.20;21.77;;;;;;;1.44;98.52;100936.66;5112759;28;20523;-85
2022/11/19 05:48:55;;;;;;;35.90;21.50;;;;;;;1.44;98.09;100944.34;5113898;28;20100;-85
2022/11/19 05:51:20;;;;;;;35.30;20.83;;;;;;;1.45;98.63;100944.38;5113014;28;20526;-84
2022/11/19 05:53:46;;;;;;;34.25;20.65;;;;;;;1.50;99.50;100947.91;5112162;28;20027;-85
2022/11/19 05:56:11;;;;;;;37.40;21.23;;;;;;;1.42;98.18;100940.88;5116859;28;20035;-85
2022/11/19 05:58:36;;;;;;;34.15;20.55;;;;;;;1.46;98.82;100947.81;5117705;28;20451;-85
2022/11/19 06:01:03;;;;;;;36.58;21.70;;;;;;;1.39;98.80;100957.03;5116263;28;20387;-84
2022/11/19 06:03:28;;;;;;;33.72;20.50;;;;;;;1.45;99.87;100959.72;5116939;28;20035;-85
2022/11/19 06:05:53;;;;;;;37.60;22.83;;;;;;;1.40;98.91;100963.88;5117425;28;20030;-85
2022/11/19 06:08:19;;;;;;;37.13;21.73;;;;;;;1.34;97.76;100969.69;5115861;28;20420;-85
2022/11/19 06:10:44;;;;;;;37.30;22.33;;;;;;;1.34;97.96;100968.81;5116744;27;20059;-85
2022/11/19 06:13:10;;;;;;;36.63;22.98;;;;;;;1.22;97.65;100965.13;5116643;28;20023;-83
2022/11/19 06:15:35;;;;;;;39.13;23.48;;;;;;;1.22;98.02;100979.63;5116210;28;20114;-83
2022/11/19 06:18:00;;;;;;;37.33;22.60;;;;;;;1.26;98.73;100973.72;5116571;28;20472;-83
2022/11/19 06:20:26;;;;;;;37.78;22.80;;;;;;;1.21;97.93;100980.44;5116265;28;20352;-84
2022/11/19 06:22:51;;;;;;;38.85;23.23;;;;;;;1.20;97.80;100986.38;5116673;28;20086;-85
2022/11/19 06:25:16;;;;;;;37.03;22.92;;;;;;;1.22;97.72;100989.84;5116188;28;20019;-85
2022/11/19 06:27:42;;;;;;;40.92;24.75;;;;;;;1.17;97.64;100999.06;5116735;28;20027;-86
2022/11/19 06:30:08;;;;;;;40.00;23.80;;;;;;;1.15;96.76;101003.28;5116229;28;20058;-86
2022/11/19 06:32:34;;;;;;;39.30;23.85;;;;;;;1.14;96.78;101014.31;5117882;27;20031;-87
2022/11/19 06:34:59;;;;;;;39.22;23.73;;;;;;;1.12;97.20;101021.97;5115305;28;20028;-86
2022/11/19 06:37:24;;;;;;;38.90;23.83;;;;;;;1.06;96.63;101011.59;5116475;28;20027;-86
2022/11/19 06:39:50;;;;;;;38.80;22.85;;;;;;;1.11;97.67;101010.00;5126135;27;20027;-87
2022/11/19 06:44:59;;;;;;;41.38;24.65;;;;;;;1.07;97.23;101011.63;5137077;27;20076;-87
2022/11/19 06:47:24;;;;;;;41.25;24.42;;;;;;;1.08;97.23;101009.91;5136251;27;20479;-86
2022/11/19 06:49:49;;;;;;;41.00;24.40;;;;;;;1.04;97.26;101014.09;5136052;27;20023;-86
2022/11/19 06:52:15;;;;;;;40.65;24.38;;;;;;;1.05;96.86;101013.25;5136482;27;20020;-86
2022/11/19 06:54:40;;;;;;;40.90;24.67;;;;;;;1.04;96.47;101013.22;5136983;27;20122;-86
2022/11/19 06:57:05;;;;;;;41.65;23.67;;;;;;;1.03;96.91;101017.47;5136185;27;20023;-86
2022/11/19 06:59:31;;;;;;;39.70;23.65;;;;;;;1.03;97.54;101020.03;5136601;27;20153;-86
2022/11/19 07:01:56;;;;;;;41.35;24.63;;;;;;;1.03;97.57;101025.13;5136641;27;20027;-86
2022/11/19 07:04:21;;;;;;;38.67;23.02;;;;;;;1.05;97.54;101030.31;5135639;27;20015;-87
2022/11/19 07:06:47;;;;;;;40.47;24.33;;;;;;;1.10;97.64;101036.38;5134431;27;20016;-85
2022/11/19 07:09:12;;;;;;;40.45;23.77;;;;;;;1.07;97.88;101037.19;5115808;28;20118;-85
2022/11/19 07:11:39;;;;;;;42.35;24.15;;;;;;;0.98;96.79;101036.06;5115432;28;20024;-86
2022/11/19 07:14:04;;;;;;;42.38;24.15;;;;;;;0.99;97.36;101036.13;5115473;28;20015;-85
2022/11/19 07:16:32;;;;;;;40.67;23.45;;;;;;;1.05;97.36;101046.50;5115871;28;20539;-86
2022/11/19 07:19:02;;;;;;;39.28;22.80;;;;;;;1.04;97.93;101041.34;5114887;28;20034;-86
2022/11/19 07:21:29;;;;;;;39.47;21.77;;;;;;;1.08;97.41;101046.59;5115848;28;20041;-85
2022/11/19 07:23:55;;;;;;;39.10;22.83;;;;;;;1.10;96.87;101048.31;5115237;28;20054;-85
2022/11/19 07:26:21;;;;;;;40.22;22.83;;;;;;;1.08;96.36;101050.81;5114488;28;20760;-85
2022/11/19 07:28:47;;;;;;;39.50;22.83;;;;;;;1.12;96.71;101051.78;5115605;28;20034;-85
2022/11/19 07:31:12;;;;;;;41.42;22.50;;;;;;;1.12;96.30;101051.78;5114869;28;20392;-87
2022/11/19 07:33:38;;;;;;;41.58;23.40;;;;;;;1.10;95.81;101064.50;5115660;28;20106;-86
2022/11/19 07:36:05;;;;;;;41.88;23.35;;;;;;;1.05;95.98;101066.94;5126265;27;20035;-85
2022/11/19 07:38:31;;;;;;;43.05;23.90;;;;;;;1.06;96.13;101066.13;5130792;27;20135;-85
2022/11/19 07:40:56;;;;;;;43.38;23.83;;;;;;;1.05;96.09;101061.81;5115351;28;20055;-85
2022/11/19 07:43:22;;;;;;;42.35;23.85;;;;;;;1.00;95.62;101070.19;5115930;27;20085;-85
2022/11/19 07:45:48;;;;;;;38.55;21.33;;;;;;;1.08;96.46;101074.69;5114083;28;20036;-85
2022/11/19 07:48:14;;;;;;;37.30;21.40;;;;;;;1.15;96.21;101082.53;5114798;28;20042;-85
2022/11/19 07:50:40;;;;;;;37.55;21.10;;;;;;;1.14;95.43;101084.22;5114742;28;20032;-85
2022/11/19 07:53:07;;;;;;;38.65;22.63;;;;;;;1.17;95.38;101091.09;5113571;28;20031;-84
2022/11/19 07:55:32;;;;;;;37.67;22.02;;;;;;;1.22;95.52;101087.00;5114610;28;20508;-85
2022/11/19 07:57:58;;;;;;;39.95;24.00;;;;;;;1.19;94.71;101092.03;5114589;28;20058;-85
2022/11/19 08:00:23;;;;;;;38.80;21.88;;;;;;;1.20;94.99;101086.09;5113990;28;20027;-85
2022/11/19 08:02:49;;;;;;;38.17;21.80;;;;;;;1.23;95.87;101099.81;5115316;27;20015;-84
2022/11/19 08:05:15;;;;;;;38.97;22.17;;;;;;;1.22;94.74;101079.34;5114698;28;20365;-84
2022/11/19 08:07:40;;;;;;;41.15;24.35;;;;;;;1.09;92.89;101090.91;5114096;28;20487;-86
2022/11/19 08:10:07;;;;;;;41.85;24.02;;;;;;;1.06;93.76;101078.91;5115866;27;20414;-85
2022/11/19 08:12:32;;;;;;;39.10;22.60;;;;;;;1.10;94.20;101107.13;5115354;27;20081;-86
2022/11/19 08:14:58;;;;;;;41.08;23.00;;;;;;;1.12;93.88;101101.22;5113865;28;20023;-85
2022/11/19 08:20:08;;;;;;;39.95;23.63;;;;;;;1.00;92.78;101111.09;5115104;28;20043;-85
2022/11/19 08:22:35;;;;;;;36.67;21.63;;;;;;;1.11;94.00;101101.19;5113848;28;20106;-85
2022/11/19 08:25:01;;;;;;;40.47;22.98;;;;;;;1.04;93.14;101110.38;5114583;28;20034;-88
2022/11/19 08:27:27;;;;;;;39.60;23.92;;;;;;;1.03;93.36;101114.59;5113747;28;20487;-84
2022/11/19 08:29:52;;;;;;;42.03;24.17;;;;;;;0.97;92.62;101109.31;5113845;28;20475;-85
2022/11/19 08:32:17;;;;;;;41.47;23.92;;;;;;;0.96;92.55;101116.97;5114188;28;20012;-85
2022/11/19 08:34:42;;;;;;;40.08;23.92;;;;;;;0.94;92.74;101113.47;5112878;28;20357;-84
2022/11/19 08:37:10;;;;;;;41.05;23.60;;;;;;;0.93;92.48;101117.72;5113997;28;20096;-86
2022/11/19 08:39:35;;;;;;;;;;;;;;;0.97;92.71;101118.66;5130133;27;20456;-86
2022/11/19 08:44:44;;;;;;;37.88;21.25;;;;;;;1.11;93.69;101122.47;5135170;27;20118;-87
2022/11/19 08:47:09;;;;;;;38.92;22.08;;;;;;;1.12;93.15;101123.38;5133551;27;20134;-87
2022/11/19 08:49:35;;;;;;;38.65;22.30;;;;;;;1.15;93.36;101126.88;5134263;27;20023;-86
2022/11/19 08:52:00;;;;;;;37.60;22.35;;;;;;;1.16;93.24;101131.16;5134348;27;20047;-85
2022/11/19 08:54:25;;;;;;;41.58;23.42;;;;;;;1.10;91.71;101130.97;5133569;27;20038;-85
2022/11/19 08:56:50;;;;;;;38.67;21.85;;;;;;;1.13;92.40;101136.19;5133667;27;20080;-85
2022/11/19 08:59:16;;;;;;;39.15;23.00;;;;;;;1.11;91.75;101139.53;5133533;27;20118;-85
2022/11/19 09:01:41;;;;;;;37.13;22.08;;;;;;;1.04;91.06;101139.34;5133713;27;20025;-86
2022/11/19 09:04:06;;;;;;;39.58;22.92;;;;;;;0.94;90.47;101132.22;5133025;27;20020;-86
2022/11/19 09:06:35;;;;;;;39.15;22.98;;;;;;;0.94;90.95;101134.78;5132124;27;20035;-86
2022/11/19 09:09:32;;;;;;;36.45;21.60;;;;;;;0.99;92.06;101133.25;5134212;27;20030;-88
2022/11/19 09:11:57;;;;;;;36.72;21.08;;;;;;;0.98;91.85;101139.19;5111622;22;20039;-85
2022/11/19 09:14:22;;;;;;;37.95;21.67;;;;;;;0.99;92.27;101134.91;5133251;27;20050;-85
2022/11/19 09:16:47;;;;;;;38.42;21.17;;;;;;;1.00;92.39;101137.53;5133220;27;20042;-85
2022/11/19 09:19:13;;;;;;;37.30;21.92;;;;;;;0.91;91.04;101139.78;5133671;27;20114;-85
2022/11/19 09:21:38;;;;;;;40.80;22.20;;;;;;;0.90;91.68;101138.94;5133385;27;20019;-86
2022/11/19 09:24:04;;;;;;;39.00;22.55;;;;;;;0.90;91.68;101140.66;5133157;27;20088;-86
2022/11/19 09:26:29;;;;;;;38.22;22.00;;;;;;;0.91;91.96;101139.78;5134216;28;20467;-86
2022/11/19 09:28:54;;;;;;;38.53;21.35;;;;;;;0.97;91.52;101149.34;5133558;27;20493;-86
2022/11/19 09:31:20;;;;;;;38.58;21.58;;;;;;;0.97;91.87;101146.78;5132745;28;20084;-86
2022/11/19 09:33:50;;;;;;;35.97;20.80;;;;;;;1.04;92.80;101152.13;5133110;28;20035;-82
2022/11/19 09:36:17;;;;;;;36.10;20.60;;;;;;;1.10;91.83;101160.81;5133084;28;20395;-87
2022/11/19 09:38:42;;;;;;;;;;;;;;;1.14;92.01;101157.47;5133711;28;20080;-84
2022/11/19 09:41:16;;;;;;;36.20;19.17;;;;;;;1.19;92.10;101159.34;5133788;28;19919;-84
2022/11/19 09:43:52;;;;;;;37.95;20.60;;;;;;;1.23;91.34;101168.84;5134222;28;20034;-84
2022/11/19 09:46:44;;;;;;;36.67;20.25;;;;;;;1.25;91.27;101168.03;5132831;28;20428;-84
2022/11/19 09:49:17;;;;;;;36.10;20.35;;;;;;;1.11;90.05;101183.84;5133743;28;20042;-85
2022/11/19 09:51:51;;;;;;;37.78;20.88;;;;;;;1.06;90.61;101185.41;5134046;28;20074;-85
2022/11/19 09:54:18;;;;;;;36.95;20.63;;;;;;;1.12;90.96;101194.94;5132951;28;20081;-86
2022/11/19 09:56:46;;;;;;;34.85;19.70;;;;;;;1.17;91.36;101188.25;5134088;28;20022;-85
2022/11/19 09:59:14;;;;;;;32.55;19.35;;;;;;;1.21;91.50;101195.22;5132739;28;20126;-85
2022/11/19 10:01:40;;;;;;;35.90;20.10;;;;;;;1.21;91.43;101197.75;5133980;28;20035;-85
2022/11/19 10:04:05;;;;;;;37.65;21.55;;;;;;;1.08;90.62;101188.84;5131797;28;20023;-85
2022/11/19 10:07:07;;;;;;;40.58;23.58;;;;;;;1.04;91.59;101189.59;5133433;28;20076;-85
2022/11/19 10:09:49;;;;;;;39.03;22.70;;;;;;;0.96;90.97;101197.03;5133484;28;20039;-85
2022/11/19 10:12:38;;;;;;;37.55;21.27;;;;;;;0.95;91.21;101207.22;5133149;28;20043;-85
2022/11/19 10:15:15;;;;;;;38.90;21.90;;;;;;;0.81;90.56;101212.78;5132653;28;20037;-85
2022/11/19 10:17:49;;;;;;;38.55;21.23;;;;;;;0.73;90.64;101206.56;5133476;28;20065;-85
2022/11/19 10:20:17;;;;;;;36.47;21.10;;;;;;;0.72;90.66;101200.59;5132771;28;20032;-84
2022/11/19 10:23:13;;;;;;;36.55;20.23;;;;;;;0.79;91.09;101206.75;5133716;28;20391;-85
2022/11/19 10:25:43;;;;;;;34.63;19.75;;;;;;;0.81;91.18;101209.34;5133094;28;20475;-84
2022/11/19 10:28:13;;;;;;;34.03;18.48;;;;;;;0.90;91.99;101207.94;5132338;28;20387;-84
2022/11/19 10:30:47;;;;;;;35.58;19.63;;;;;;;0.95;90.56;101218.31;5126273;28;20020;-85
2022/11/19 10:33:31;;;;;;;37.72;19.70;;;;;;;0.96;91.31;101214.06;5112363;28;20123;-85
2022/11/19 10:36:01;;;;;;;35.85;19.85;;;;;;;0.95;90.24;101213.19;5112101;28;20411;-84
2022/11/19 10:38:35;;;;;;;35.13;19.45;;;;;;;0.91;90.21;101213.91;5112632;28;20020;-85
2022/11/19 10:41:10;;;;;;;36.17;20.88;;;;;;;0.78;90.21;101215.22;5113033;28;20373;-84
2022/11/19 10:43:45;;;;;;;36.22;20.05;;;;;;;0.83;91.20;101221.38;5116882;28;20024;-86
2022/11/19 10:46:13;;;;;;;38.35;20.88;;;;;;;0.75;90.29;101210.03;5116840;27;20042;-85
2022/11/19 10:48:45;;;;;;;35.88;20.88;;;;;;;0.78;91.28;101212.69;5132935;27;20023;-88
2022/11/19 10:51:13;;;;;;;36.50;20.35;;;;;;;0.79;91.62;101206.75;5131478;27;20026;-84
2022/11/19 10:53:39;;;;;;;33.95;19.48;;;;;;;0.80;91.39;101205.94;5136846;27;20098;-84
2022/11/19 10:56:34;;;;;;;36.13;19.98;;;;;;;0.76;91.02;101211.75;5135330;27;20084;-84
2022/11/19 10:59:15;;;;;;;35.60;19.90;;;;;;;0.75;91.11;101210.91;5134686;27;20030;-84
2022/11/19 11:01:43;;;;;;;36.20;20.05;;;;;;;0.81;91.03;101219.56;5136634;27;20390;-84
2022/11/19 11:04:14;;;;;;;34.30;19.23;;;;;;;0.80;89.99;101218.72;5136051;27;20019;-83
2022/11/19 11:07:02;;;;;;;33.00;18.17;;;;;;;0.77;89.52;101216.06;5137111;27;20050;-84
2022/11/19 11:09:33;;;;;;;31.70;17.25;;;;;;;0.79;89.98;101218.69;5135787;27;20451;-84
2022/11/19 11:15:25;;;;;;;31.35;17.27;;;;;;;0.51;88.60;101225.44;5135838;27;20127;-84
2022/11/19 11:18:02;;;;;;;30.63;16.88;;;;;;;0.49;88.58;101222.88;5116575;22;20131;-85
2022/11/19 11:20:29;;;;;;;31.35;17.15;;;;;;;0.49;89.00;101216.88;5095754;28;20036;-84
2022/11/19 11:23:15;;;;;;;31.00;16.77;;;;;;;0.58;89.75;101215.50;5095152;28;20020;-85
2022/11/19 11:25:52;;;;;;;31.02;16.77;;;;;;;0.68;89.43;101214.06;5095251;28;20020;-84
2022/11/19 11:28:20;;;;;;;28.60;15.98;;;;;;;0.77;89.59;101214.38;5114090;28;20426;-84
2022/11/19 11:30:56;;;;;;;32.97;18.10;;;;;;;0.67;88.21;101212.38;5114454;28;20097;-84
2022/11/19 11:33:37;;;;;;;29.95;15.82;;;;;;;0.72;89.17;101200.59;5115018;28;20039;-84
2022/11/19 11:36:14;;;;;;;31.08;16.73;;;;;;;0.73;88.67;101204.88;5115320;28;20020;-85
2022/11/19 11:38:43;;;;;;;30.67;16.50;;;;;;;0.59;87.66;101204.47;5113379;28;20035;-84
2022/11/19 11:41:15;;;;;;;29.40;16.05;;;;;;;0.62;88.74;101198.56;5114993;28;20024;-83
2022/11/19 11:44:00;;;;;;;29.33;16.25;;;;;;;0.63;88.84;101200.31;5115453;28;20069;-84
2022/11/19 11:46:34;;;;;;;28.83;15.45;;;;;;;0.69;89.05;101204.72;5114314;28;20031;-84
2022/11/19 11:48:59;;;;;;;29.15;16.05;;;;;;;0.62;88.44;101198.56;5115086;28;20027;-84